sensor_id;sensor_type;location;lat;lon;timestamp;pressure;altitude;pressure_sealevel;temperature;humidity
76990;BME280;65924;47.250;11.332;2023-06-14T00:00:40;94398.84;;;18.55;50.75
76990;BME280;65924;47.250;11.332;2023-06-14T00:10:42;94397.23;;;18.56;51.63
76990;BME280;65924;47.250;11.332;2023-06-14T00:20:43;94397.81;;;18.39;51.80
76990;BME280;65924;47.250;11.332;2023-06-14T00:30:43;94394.78;;;18.49;52.61
76990;BME280;65924;47.250;11.332;2023-06-14T00:40:46;94393.80;;;18.42;50.35
76990;BME280;65924;47.250;11.332;2023-06-14T00:50:49;94387.15;;;18.26;51.84
76990;BME280;65924;47.250;11.332;2023-06-14T01:00:51;94390.17;;;18.32;54.84
76990;BME280;65924;47.250;11.332;2023-06-14T01:11:02;94388.66;;;18.26;52.19
76990;BME280;65924;47.250;11.332;2023-06-14T01:21:05;94395.30;;;18.01;53.14
76990;BME280;65924;47.250;11.332;2023-06-14T01:31:07;94398.10;;;17.90;55.05
76990;BME280;65924;47.250;11.332;2023-06-14T01:41:08;94393.80;;;17.89;54.12
76990;BME280;65924;47.250;11.332;2023-06-14T01:51:10;94393.48;;;17.67;52.58
76990;BME280;65924;47.250;11.332;2023-06-14T02:01:10;94393.38;;;17.33;53.44
76990;BME280;65924;47.250;11.332;2023-06-14T02:11:13;94397.41;;;17.32;56.05
76990;BME280;65924;47.250;11.332;2023-06-14T02:21:14;94396.65;;;17.26;55.68
76990;BME280;65924;47.250;11.332;2023-06-14T02:31:15;94398.81;;;17.26;56.60
76990;BME280;65924;47.250;11.332;2023-06-14T02:41:16;94395.64;;;17.17;56.62
76990;BME280;65924;47.250;11.332;2023-06-14T02:51:17;94398.52;;;17.19;57.18
76990;BME280;65924;47.250;11.332;2023-06-14T03:01:17;94401.73;;;17.21;55.13
76990;BME280;65924;47.250;11.332;2023-06-14T03:11:19;94404.45;;;17.30;54.75
76990;BME280;65924;47.250;11.332;2023-06-14T03:21:21;94408.19;;;17.40;53.69
76990;BME280;65924;47.250;11.332;2023-06-14T03:31:23;94415.40;;;17.40;56.00
76990;BME280;65924;47.250;11.332;2023-06-14T03:41:24;94420.61;;;17.25;56.18
76990;BME280;65924;47.250;11.332;2023-06-14T03:51:27;94429.99;;;17.13;56.69
76990;BME280;65924;47.250;11.332;2023-06-14T04:01:29;94440.98;;;17.02;57.50
76990;BME280;65924;47.250;11.332;2023-06-14T04:11:32;94449.58;;;16.93;57.54
76990;BME280;65924;47.250;11.332;2023-06-14T04:21:33;94455.85;;;16.79;57.96
76990;BME280;65924;47.250;11.332;2023-06-14T04:31:36;94462.83;;;16.77;58.26
76990;BME280;65924;47.250;11.332;2023-06-14T04:41:43;94464.38;;;16.77;57.16
76990;BME280;65924;47.250;11.332;2023-06-14T04:51:45;94471.26;;;16.81;56.29
76990;BME280;65924;47.250;11.332;2023-06-14T05:01:47;94480.70;;;16.98;56.04
76990;BME280;65924;47.250;11.332;2023-06-14T05:11:49;94479.55;;;17.23;57.58
76990;BME280;65924;47.250;11.332;2023-06-14T05:21:50;94480.77;;;17.39;57.84
76990;BME280;65924;47.250;11.332;2023-06-14T05:31:51;94480.47;;;17.35;58.68
76990;BME280;65924;47.250;11.332;2023-06-14T05:41:52;94487.58;;;17.23;58.91
76990;BME280;65924;47.250;11.332;2023-06-14T05:51:52;94494.39;;;17.27;58.00
76990;BME280;65924;47.250;11.332;2023-06-14T06:01:53;94496.55;;;17.32;58.10
76990;BME280;65924;47.250;11.332;2023-06-14T06:11:54;94493.10;;;17.53;58.73
76990;BME280;65924;47.250;11.332;2023-06-14T06:21:55;94491.54;;;17.68;58.03
76990;BME280;65924;47.250;11.332;2023-06-14T06:31:56;94486.81;;;17.69;57.94
76990;BME280;65924;47.250;11.332;2023-06-14T06:41:57;94493.34;;;17.83;57.43
76990;BME280;65924;47.250;11.332;2023-06-14T06:52:05;94485.26;;;18.15;55.56
76990;BME280;65924;47.250;11.332;2023-06-14T07:02:06;94482.79;;;18.49;55.02
76990;BME280;65924;47.250;11.332;2023-06-14T07:12:07;94475.15;;;18.85;55.36
76990;BME280;65924;47.250;11.332;2023-06-14T07:22:08;94467.88;;;19.14;53.16
76990;BME280;65924;47.250;11.332;2023-06-14T07:32:08;94477.08;;;19.35;51.96
76990;BME280;65924;47.250;11.332;2023-06-14T07:42:09;94470.02;;;19.54;52.18
76990;BME280;65924;47.250;11.332;2023-06-14T07:52:10;94459.62;;;19.89;48.79
76990;BME280;65924;47.250;11.332;2023-06-14T08:02:11;94454.24;;;20.29;48.19
76990;BME280;65924;47.250;11.332;2023-06-14T08:12:12;94445.50;;;20.59;47.11
76990;BME280;65924;47.250;11.332;2023-06-14T08:22:12;94433.67;;;20.81;46.02
76990;BME280;65924;47.250;11.332;2023-06-14T08:32:13;94431.50;;;21.03;44.74
76990;BME280;65924;47.250;11.332;2023-06-14T08:42:14;94427.39;;;21.37;45.28
76990;BME280;65924;47.250;11.332;2023-06-14T08:52:19;94423.45;;;21.73;43.67
76990;BME280;65924;47.250;11.332;2023-06-14T09:02:21;94417.90;;;22.01;41.63
76990;BME280;65924;47.250;11.332;2023-06-14T09:12:22;94415.44;;;22.22;41.38
76990;BME280;65924;47.250;11.332;2023-06-14T09:22:23;94404.52;;;22.54;40.68
76990;BME280;65924;47.250;11.332;2023-06-14T09:32:24;94403.77;;;22.92;42.75
76990;BME280;65924;47.250;11.332;2023-06-14T09:42:25;94400.04;;;23.13;41.21
76990;BME280;65924;47.250;11.332;2023-06-14T09:52:27;94391.07;;;23.36;39.78
76990;BME280;65924;47.250;11.332;2023-06-14T10:02:31;94383.33;;;23.60;39.74
76990;BME280;65924;47.250;11.332;2023-06-14T10:12:34;94366.04;;;23.93;38.94
76990;BME280;65924;47.250;11.332;2023-06-14T10:22:44;94350.83;;;24.19;38.50
76990;BME280;65924;47.250;11.332;2023-06-14T10:33:04;94342.56;;;24.45;40.93
76990;BME280;65924;47.250;11.332;2023-06-14T10:43:22;94331.05;;;24.73;39.56
76990;BME280;65924;47.250;11.332;2023-06-14T10:53:23;94319.30;;;24.99;39.73
76990;BME280;65924;47.250;11.332;2023-06-14T11:03:51;94303.70;;;25.20;39.27
76990;BME280;65924;47.250;11.332;2023-06-14T11:13:55;94288.89;;;25.49;36.93
76990;BME280;65924;47.250;11.332;2023-06-14T11:23:56;94280.80;;;25.73;39.36
76990;BME280;65924;47.250;11.332;2023-06-14T11:33:58;94268.18;;;25.93;39.99
76990;BME280;65924;47.250;11.332;2023-06-14T11:44:00;94254.51;;;26.11;38.36
76990;BME280;65924;47.250;11.332;2023-06-14T11:54:03;94245.90;;;26.28;40.66
76990;BME280;65924;47.250;11.332;2023-06-14T12:04:04;94236.29;;;26.59;41.87
76990;BME280;65924;47.250;11.332;2023-06-14T12:14:06;94223.30;;;26.81;42.12
76990;BME280;65924;47.250;11.332;2023-06-14T12:24:08;94214.61;;;26.98;36.53
76990;BME280;65924;47.250;11.332;2023-06-14T12:34:12;94203.80;;;27.15;38.79
76990;BME280;65924;47.250;11.332;2023-06-14T12:44:13;94204.20;;;27.39;35.91
76990;BME280;65924;47.250;11.332;2023-06-14T12:54:13;94198.53;;;27.57;37.85
76990;BME280;65924;47.250;11.332;2023-06-14T13:04:15;94198.16;;;27.64;37.15
76990;BME280;65924;47.250;11.332;2023-06-14T13:14:15;94195.19;;;27.68;36.09
76990;BME280;65924;47.250;11.332;2023-06-14T13:24:16;94196.13;;;27.77;37.48
76990;BME280;65924;47.250;11.332;2023-06-14T13:34:17;94198.26;;;27.80;37.37
76990;BME280;65924;47.250;11.332;2023-06-14T13:44:17;94201.06;;;27.85;36.45
76990;BME280;65924;47.250;11.332;2023-06-14T13:54:21;94197.84;;;27.89;37.13
76990;BME280;65924;47.250;11.332;2023-06-14T14:04:22;94200.11;;;27.83;37.22
76990;BME280;65924;47.250;11.332;2023-06-14T14:14:22;94191.10;;;27.76;36.78
76990;BME280;65924;47.250;11.332;2023-06-14T14:24:24;94195.36;;;27.73;37.44
76990;BME280;65924;47.250;11.332;2023-06-14T14:34:24;94199.06;;;27.60;34.96
76990;BME280;65924;47.250;11.332;2023-06-14T14:44:28;94202.70;;;27.48;38.82
76990;BME280;65924;47.250;11.332;2023-06-14T14:54:28;94207.31;;;27.38;38.48
76990;BME280;65924;47.250;11.332;2023-06-14T15:04:29;94208.58;;;27.16;38.06
76990;BME280;65924;47.250;11.332;2023-06-14T15:14:30;94213.33;;;26.93;38.44
76990;BME280;65924;47.250;11.332;2023-06-14T15:24:30;94226.70;;;26.74;39.64
76990;BME280;65924;47.250;11.332;2023-06-14T15:34:33;94233.16;;;26.55;38.67
76990;BME280;65924;47.250;11.332;2023-06-14T15:44:33;94236.71;;;26.39;38.66
76990;BME280;65924;47.250;11.332;2023-06-14T15:54:34;94247.88;;;26.20;38.92
76990;BME280;65924;47.250;11.332;2023-06-14T16:04:35;94249.23;;;26.02;38.42
76990;BME280;65924;47.250;11.332;2023-06-14T16:14:35;94263.13;;;25.89;39.16
76990;BME280;65924;47.250;11.332;2023-06-14T16:24:36;94266.33;;;25.65;38.23
76990;BME280;65924;47.250;11.332;2023-06-14T16:34:36;94273.15;;;25.44;38.32
76990;BME280;65924;47.250;11.332;2023-06-14T16:44:37;94290.63;;;25.26;38.16
76990;BME280;65924;47.250;11.332;2023-06-14T16:54:37;94302.49;;;25.12;40.40
76990;BME280;65924;47.250;11.332;2023-06-14T17:04:38;94317.02;;;24.99;36.95
76990;BME280;65924;47.250;11.332;2023-06-14T17:14:38;94335.77;;;24.86;39.87
76990;BME280;65924;47.250;11.332;2023-06-14T17:24:39;94353.98;;;24.69;36.60
76990;BME280;65924;47.250;11.332;2023-06-14T17:34:40;94369.58;;;24.58;39.14
76990;BME280;65924;47.250;11.332;2023-06-14T17:44:40;94394.95;;;24.51;38.59
76990;BME280;65924;47.250;11.332;2023-06-14T17:54:41;94413.64;;;24.36;38.59
76990;BME280;65924;47.250;11.332;2023-06-14T18:04:41;94422.29;;;24.33;39.13
76990;BME280;65924;47.250;11.332;2023-06-14T18:14:42;94443.41;;;24.16;39.28
76990;BME280;65924;47.250;11.332;2023-06-14T18:24:42;94458.15;;;24.00;38.98
76990;BME280;65924;47.250;11.332;2023-06-14T18:34:43;94471.39;;;23.92;38.49
76990;BME280;65924;47.250;11.332;2023-06-14T18:44:43;94485.23;;;23.81;40.14
76990;BME280;65924;47.250;11.332;2023-06-14T19:04:58;94514.44;;;23.70;39.85
76990;BME280;65924;47.250;11.332;2023-06-14T19:14:59;94524.83;;;23.66;40.04
76990;BME280;65924;47.250;11.332;2023-06-14T19:25:00;94547.13;;;23.51;38.05
76990;BME280;65924;47.250;11.332;2023-06-14T19:35:00;94555.51;;;23.33;39.57
76990;BME280;65924;47.250;11.332;2023-06-14T19:45:01;94571.27;;;23.29;39.52
76990;BME280;65924;47.250;11.332;2023-06-14T19:55:02;94585.59;;;23.22;37.56
76990;BME280;65924;47.250;11.332;2023-06-14T20:05:03;94598.82;;;23.03;38.92
76990;BME280;65924;47.250;11.332;2023-06-14T20:15:06;94610.57;;;22.83;40.21
76990;BME280;65924;47.250;11.332;2023-06-14T20:25:08;94622.81;;;22.61;40.43
76990;BME280;65924;47.250;11.332;2023-06-14T20:35:09;94637.35;;;22.38;41.62
76990;BME280;65924;47.250;11.332;2023-06-14T20:45:09;94640.50;;;22.25;39.72
76990;BME280;65924;47.250;11.332;2023-06-14T20:55:11;94645.04;;;22.21;40.59
76990;BME280;65924;47.250;11.332;2023-06-14T21:05:11;94651.86;;;22.15;41.04
76990;BME280;65924;47.250;11.332;2023-06-14T21:15:12;94656.18;;;21.79;39.73
76990;BME280;65924;47.250;11.332;2023-06-14T21:25:13;94669.00;;;21.28;40.08
76990;BME280;65924;47.250;11.332;2023-06-14T21:35:14;94683.45;;;21.32;41.02
76990;BME280;65924;47.250;11.332;2023-06-14T21:45:17;94686.81;;;21.09;40.49
76990;BME280;65924;47.250;11.332;2023-06-14T21:55:18;94688.49;;;20.97;44.84
76990;BME280;65924;47.250;11.332;2023-06-14T22:05:21;94692.88;;;20.93;42.09
76990;BME280;65924;47.250;11.332;2023-06-14T22:15:21;94694.14;;;20.87;44.67
76990;BME280;65924;47.250;11.332;2023-06-14T22:25:23;94705.33;;;20.85;44.58
76990;BME280;65924;47.250;11.332;2023-06-14T22:35:23;94700.83;;;20.80;46.83
76990;BME280;65924;47.250;11.332;2023-06-14T22:45:24;94702.02;;;20.52;46.66
76990;BME280;65924;47.250;11.332;2023-06-14T22:55:24;94706.50;;;20.34;48.16
76990;BME280;65924;47.250;11.332;2023-06-14T23:05:26;94714.61;;;20.23;50.60
76990;BME280;65924;47.250;11.332;2023-06-14T23:15:28;94716.52;;;19.85;47.89
76990;BME280;65924;47.250;11.332;2023-06-14T23:25:29;94722.08;;;19.79;54.42
76990;BME280;65924;47.250;11.332;2023-06-14T23:35:35;94719.98;;;19.49;48.20
76990;BME280;65924;47.250;11.332;2023-06-14T23:45:35;94723.85;;;19.41;51.23
76990;BME280;65924;47.250;11.332;2023-06-14T23:55:36;94712.81;;;19.18;50.95
